createdAt,value
2017-08-31T00:04:44.972Z,99868
2017-08-31T00:09:48.203Z,99868
2017-08-31T00:14:51.408Z,99881
2017-08-31T00:19:54.585Z,99877
2017-08-31T00:24:57.787Z,99869
2017-08-31T00:30:00.976Z,99876
2017-08-31T00:35:04.175Z,99870
2017-08-31T00:40:07.360Z,99871
2017-08-31T00:45:10.607Z,99897
2017-08-31T00:50:13.821Z,99885
2017-08-31T00:55:16.992Z,99877
2017-08-31T01:00:20.201Z,99881
2017-08-31T01:05:23.412Z,99878
2017-08-31T01:10:26.609Z,99882
2017-08-31T01:15:29.766Z,99881
2017-08-31T01:20:32.944Z,99873
2017-08-31T01:25:36.401Z,99873
2017-08-31T01:30:39.599Z,99884
2017-08-31T01:35:42.795Z,99879
2017-08-31T01:40:45.985Z,99885
2017-08-31T01:45:49.159Z,99873
2017-08-31T01:50:52.375Z,99872
2017-08-31T01:55:55.575Z,99870
2017-08-31T02:00:58.827Z,99885
2017-08-31T02:06:02.011Z,99880
2017-08-31T02:11:05.234Z,99883
2017-08-31T02:16:08.576Z,99882
2017-08-31T02:21:11.782Z,99886
2017-08-31T02:26:14.955Z,99886
2017-08-31T02:31:18.160Z,99891
2017-08-31T02:36:21.347Z,99884
2017-08-31T02:41:24.523Z,99874
2017-08-31T02:46:27.732Z,99888
2017-08-31T02:51:30.937Z,99885
2017-08-31T02:56:34.170Z,99899
2017-08-31T03:01:37.376Z,99893
2017-08-31T03:06:40.562Z,99894
2017-08-31T03:11:43.826Z,99893
2017-08-31T03:16:47.031Z,99873
2017-08-31T03:21:50.249Z,99871
2017-08-31T03:26:53.448Z,99869
2017-08-31T03:31:56.663Z,99868
2017-08-31T03:36:59.845Z,99865
2017-08-31T03:42:03.038Z,99869
2017-08-31T03:47:06.275Z,99895
2017-08-31T03:52:09.535Z,99894
2017-08-31T03:57:12.740Z,99910
2017-08-31T04:02:16.001Z,99885
2017-08-31T04:07:19.209Z,99872
2017-08-31T04:12:22.421Z,99861
2017-08-31T04:17:25.620Z,99874
2017-08-31T04:22:28.884Z,99868
2017-08-31T04:27:32.078Z,99844
2017-08-31T04:32:35.287Z,99865
2017-08-31T04:37:38.515Z,99858
2017-08-31T04:42:41.729Z,99893
2017-08-31T04:47:44.923Z,99886
2017-08-31T04:52:48.134Z,99916
2017-08-31T04:57:51.352Z,99919
2017-08-31T05:02:54.552Z,99918
2017-08-31T05:07:57.757Z,99931
2017-08-31T05:13:00.959Z,99934
2017-08-31T05:18:04.151Z,99943
2017-08-31T05:23:07.352Z,99942
2017-08-31T05:28:10.762Z,99942
2017-08-31T05:33:13.984Z,99941
2017-08-31T05:38:17.240Z,99944
2017-08-31T05:43:20.413Z,99945
2017-08-31T05:48:23.606Z,99954
2017-08-31T05:53:26.842Z,99958
2017-08-31T05:58:30.029Z,99955
2017-08-31T06:03:33.219Z,99957
2017-08-31T06:08:36.416Z,99948
2017-08-31T06:13:39.610Z,99945
2017-08-31T06:18:42.797Z,99959
2017-08-31T06:23:45.997Z,99960
2017-08-31T06:28:49.290Z,99948
2017-08-31T06:33:52.500Z,99957
2017-08-31T06:38:55.706Z,99966
2017-08-31T06:43:58.910Z,99976
2017-08-31T06:49:02.109Z,99988
2017-08-31T06:54:05.306Z,99995
2017-08-31T06:59:08.568Z,100005
2017-08-31T07:04:11.764Z,99996
2017-08-31T07:09:14.971Z,100023
2017-08-31T07:14:18.184Z,100029
2017-08-31T07:19:21.386Z,100034
2017-08-31T07:24:24.608Z,100051
2017-08-31T07:29:27.887Z,100052
2017-08-31T07:34:31.106Z,100061
2017-08-31T07:39:34.314Z,100070
2017-08-31T07:44:37.526Z,100060
2017-08-31T07:49:40.740Z,100064
2017-08-31T07:54:44.025Z,100060
2017-08-31T07:59:47.232Z,100088
2017-08-31T08:04:50.511Z,100155
2017-08-31T08:09:53.734Z,100184
2017-08-31T08:14:56.989Z,100187
2017-08-31T08:20:00.174Z,100201
2017-08-31T08:25:03.314Z,100205
2017-08-31T08:30:06.491Z,100199
2017-08-31T08:35:09.664Z,100206
2017-08-31T08:40:12.859Z,100226
2017-08-31T08:45:16.026Z,100238
2017-08-31T08:50:19.229Z,100233
2017-08-31T09:00:31.901Z,100278
2017-08-31T09:05:35.097Z,100286
2017-08-31T09:10:38.334Z,100288
2017-08-31T09:15:41.552Z,100307
2017-08-31T09:20:44.745Z,100321
2017-08-31T09:25:47.938Z,100318
2017-08-31T09:30:51.177Z,100343
2017-08-31T09:35:54.391Z,100325
2017-08-31T09:40:57.598Z,100351
2017-08-31T09:46:00.869Z,100356
2017-08-31T09:51:04.080Z,100373
2017-08-31T09:56:07.251Z,100357
2017-08-31T10:01:10.461Z,100374
2017-08-31T10:06:13.674Z,100389
2017-08-31T10:11:16.884Z,100405
2017-08-31T10:16:20.145Z,100398
2017-08-31T10:21:23.319Z,100414
2017-08-31T10:26:26.504Z,100426
2017-08-31T10:31:29.732Z,100437
2017-08-31T10:36:32.941Z,100449
2017-08-31T10:41:36.155Z,100462
2017-08-31T10:46:39.367Z,100477
2017-08-31T10:51:42.571Z,100490
2017-08-31T10:56:45.767Z,100504
2017-08-31T11:01:48.977Z,100519
2017-08-31T11:06:53.102Z,100522
2017-08-31T11:11:56.296Z,100528
2017-08-31T11:16:59.478Z,100532
2017-08-31T11:22:02.698Z,100541
2017-08-31T11:27:05.914Z,100535
2017-08-31T11:32:09.211Z,100544
2017-08-31T11:37:12.358Z,100561
2017-08-31T11:42:15.594Z,100564
2017-08-31T11:47:18.809Z,100563
2017-08-31T11:52:21.990Z,100561
2017-08-31T11:57:25.197Z,100560
2017-08-31T12:02:28.409Z,100566
2017-08-31T12:07:31.626Z,100582
2017-08-31T12:12:34.845Z,100590
2017-08-31T12:17:38.045Z,100594
2017-08-31T12:22:41.267Z,100604
2017-08-31T12:27:44.464Z,100614
2017-08-31T12:32:47.665Z,100600
2017-08-31T12:37:50.884Z,100609
2017-08-31T12:42:54.081Z,100610
2017-08-31T12:47:57.237Z,100602
2017-08-31T12:53:00.483Z,100601
2017-08-31T12:58:03.702Z,100600
2017-08-31T13:03:06.909Z,100591
2017-08-31T13:08:10.125Z,100605
2017-08-31T13:13:13.333Z,100610
2017-08-31T13:18:16.534Z,100613
2017-08-31T13:23:19.747Z,100616
2017-08-31T13:28:22.952Z,100619
2017-08-31T13:33:26.155Z,100624
2017-08-31T13:38:29.371Z,100643
2017-08-31T13:43:32.584Z,100641
2017-08-31T13:48:35.885Z,100647
2017-08-31T13:53:39.046Z,100640
2017-08-31T13:58:42.277Z,100646
2017-08-31T14:03:45.487Z,100661
2017-08-31T14:08:48.672Z,100656
2017-08-31T14:13:51.928Z,100654
2017-08-31T14:18:55.284Z,100655
2017-08-31T14:23:58.490Z,100665
2017-08-31T14:29:01.725Z,100662
2017-08-31T14:34:04.940Z,100662
2017-08-31T14:39:08.160Z,100669
2017-08-31T14:44:11.386Z,100666
2017-08-31T14:49:14.597Z,100670
2017-08-31T14:54:17.805Z,100684
2017-08-31T14:59:21.018Z,100702
2017-08-31T15:04:24.217Z,100698
2017-08-31T15:09:27.602Z,100711
2017-08-31T15:14:30.799Z,100723
2017-08-31T15:19:33.994Z,100732
2017-08-31T15:24:37.227Z,100741
2017-08-31T15:29:42.224Z,100746
2017-08-31T15:34:48.017Z,100753
2017-08-31T15:39:51.250Z,100772
2017-08-31T15:44:54.457Z,100764
2017-08-31T15:49:57.753Z,100753
2017-08-31T15:55:00.992Z,100743
2017-08-31T16:00:04.214Z,100755
2017-08-31T16:05:07.420Z,100752
2017-08-31T16:10:10.619Z,100768
2017-08-31T16:15:13.849Z,100754
2017-08-31T16:20:17.087Z,100765
2017-08-31T16:25:20.294Z,100764
2017-08-31T16:30:23.545Z,100755
2017-08-31T16:35:26.768Z,100748
2017-08-31T16:40:30.006Z,100750
2017-08-31T16:45:33.237Z,100742
2017-08-31T16:50:36.466Z,100742
2017-08-31T16:55:39.702Z,100734
2017-08-31T17:00:43.003Z,100741
2017-08-31T17:05:46.212Z,100741
2017-08-31T17:10:49.444Z,100744
2017-08-31T17:15:52.642Z,100749
2017-08-31T17:20:55.867Z,100760
2017-08-31T17:25:59.061Z,100769
2017-08-31T17:31:02.271Z,100773
2017-08-31T17:36:05.490Z,100777
2017-08-31T17:41:08.710Z,100784
2017-08-31T17:46:12.017Z,100787
2017-08-31T17:51:15.266Z,100789
2017-08-31T17:56:18.480Z,100797
2017-08-31T18:01:21.704Z,100796
2017-08-31T18:06:24.963Z,100806
2017-08-31T18:11:28.231Z,100810
2017-08-31T18:16:31.500Z,100825
2017-08-31T18:21:34.729Z,100821
2017-08-31T18:26:37.951Z,100833
2017-08-31T18:31:41.196Z,100827
2017-08-31T18:36:44.407Z,100839
2017-08-31T18:41:47.685Z,100849
2017-08-31T18:46:50.917Z,100851
2017-08-31T18:51:54.175Z,100843
2017-08-31T18:56:57.411Z,100864
2017-08-31T19:02:00.646Z,100865
2017-08-31T19:07:03.843Z,100882
2017-08-31T19:12:07.050Z,100874
2017-08-31T19:17:10.309Z,100891
2017-08-31T19:22:13.518Z,100881
2017-08-31T19:27:16.689Z,100877
2017-08-31T19:32:19.910Z,100884
2017-08-31T19:37:23.400Z,100879
2017-08-31T19:42:26.609Z,100886
2017-08-31T19:47:29.985Z,100884
2017-08-31T19:52:33.241Z,100892
2017-08-31T19:57:36.474Z,100891
2017-08-31T20:02:39.684Z,100902
2017-08-31T20:07:42.960Z,100912
2017-08-31T20:12:46.192Z,100908
2017-08-31T20:17:49.400Z,100892
2017-08-31T20:22:52.644Z,100895
2017-08-31T20:27:55.895Z,100898
2017-08-31T20:32:59.092Z,100907
2017-08-31T20:38:02.368Z,100908
2017-08-31T20:43:05.574Z,100919
2017-08-31T20:48:08.789Z,100917
2017-08-31T20:53:12.100Z,100916
2017-08-31T20:58:15.350Z,100892
2017-08-31T21:03:18.524Z,100905
2017-08-31T21:08:21.777Z,100910
2017-08-31T21:13:24.994Z,100914
2017-08-31T21:18:28.255Z,100908
2017-08-31T21:23:31.464Z,100923
2017-08-31T21:28:34.675Z,100935
2017-08-31T21:33:37.850Z,100933
2017-08-31T21:38:41.032Z,100935
2017-08-31T21:43:44.203Z,100950
2017-08-31T21:48:47.545Z,100948
2017-08-31T21:53:50.743Z,100947
2017-08-31T21:58:53.924Z,100944
2017-08-31T22:03:57.132Z,100952
2017-08-31T22:09:00.328Z,100956
2017-08-31T22:14:03.572Z,100968
2017-08-31T22:19:06.805Z,100958
2017-08-31T22:24:10.004Z,100950
2017-08-31T22:29:13.201Z,100935
2017-08-31T22:34:16.427Z,100932
2017-08-31T22:39:19.620Z,100957
2017-08-31T22:44:22.869Z,100961
2017-08-31T22:49:26.084Z,100960
2017-08-31T22:54:29.310Z,100977
2017-08-31T22:59:32.550Z,100968
2017-08-31T23:04:35.716Z,100963
2017-08-31T23:09:38.883Z,100945
2017-08-31T23:14:42.039Z,100954
2017-08-31T23:19:45.261Z,100966
2017-08-31T23:24:48.436Z,100958
2017-08-31T23:29:51.628Z,100958
2017-08-31T23:34:54.774Z,100938
2017-08-31T23:39:57.946Z,100940
2017-08-31T23:45:01.112Z,100949
2017-08-31T23:50:04.341Z,100956
2017-08-31T23:55:07.654Z,100938
